Time;durP1;ratioP1;P1;durP2;ratioP2;P2;SDS_P1;SDS_P2;PMS_P1;PMS_P2;Temp;Humidity;BMP_temperature;BMP_pressure;BME280_temperature;BME280_humidity;BME280_pressure;Samples;Min_cycle;Max_cycle;Signal;HPM_P1;HPM_P2
2023/11/01 00:01:37;;;;;;;15.00;2.05;;;;;;;9.56;100.00;100398.69;5032115;28;20060;-79
2023/11/01 00:04:03;;;;;;;11.95;2.50;;;;;;;9.55;100.00;100396.19;5032364;28;20038;-78
2023/11/01 00:06:28;;;;;;;11.68;2.20;;;;;;;9.53;100.00;100396.31;5032299;28;20025;-78
2023/11/01 00:08:54;;;;;;;10.30;2.70;;;;;;;9.53;100.00;100385.69;5031910;28;20134;-78
2023/11/01 00:11:19;;;;;;;13.77;2.50;;;;;;;9.53;100.00;100380.38;5032139;28;20470;-78
2023/11/01 00:13:45;;;;;;;17.08;2.90;;;;;;;9.50;100.00;100380.69;5032258;28;20066;-78
2023/11/01 00:16:10;;;;;;;16.38;2.63;;;;;;;9.49;100.00;100374.53;5032305;28;20034;-78
2023/11/01 00:18:36;;;;;;;12.65;3.15;;;;;;;9.50;100.00;100380.69;5032167;28;20038;-78
2023/11/01 00:21:01;;;;;;;10.40;2.92;;;;;;;9.49;100.00;100373.69;5030347;28;20051;-78
2023/11/01 00:23:26;;;;;;;16.85;3.72;;;;;;;9.49;100.00;100374.53;5032117;28;20128;-78
2023/11/01 00:25:52;;;;;;;12.20;3.67;;;;;;;9.49;100.00;100374.53;5030183;28;20442;-77
2023/11/01 00:28:17;;;;;;;18.90;5.00;;;;;;;9.49;100.00;100368.38;5032045;28;20516;-78
2023/11/01 00:30:43;;;;;;;22.65;5.40;;;;;;;9.52;100.00;100362.75;5031286;28;20099;-78
2023/11/01 00:33:08;;;;;;;15.63;5.15;;;;;;;9.54;100.00;100366.13;5031753;28;20029;-78
2023/11/01 00:35:34;;;;;;;20.98;5.35;;;;;;;9.56;100.00;100363.34;5032215;28;20033;-80
2023/11/01 00:37:59;;;;;;;20.23;4.80;;;;;;;9.56;100.00;100358.03;5031894;28;20549;-78
2023/11/01 00:40:24;;;;;;;11.35;4.45;;;;;;;9.56;100.00;100363.34;5032490;28;20033;-78
2023/11/01 00:42:50;;;;;;;13.60;4.70;;;;;;;9.56;100.00;100363.34;5031673;28;20068;-79
2023/11/01 00:45:15;;;;;;;15.30;5.10;;;;;;;9.57;100.00;100365.84;5031713;28;20460;-78
2023/11/01 00:47:40;;;;;;;15.00;5.20;;;;;;;9.59;100.00;100365.69;5030531;28;20095;-77
2023/11/01 00:50:06;;;;;;;15.30;5.40;;;;;;;9.61;100.00;100363.72;5031501;28;20033;-79
2023/11/01 00:52:32;;;;;;;18.83;6.03;;;;;;;9.63;100.00;100362.59;5031581;28;20080;-79
2023/11/01 00:54:57;;;;;;;23.63;5.93;;;;;;;9.62;100.00;100352.97;5031185;28;20041;-79
2023/11/01 00:57:23;;;;;;;20.92;5.60;;;;;;;9.61;100.00;100359.25;5030039;28;20119;-79
2023/11/01 00:59:48;;;;;;;22.40;5.78;;;;;;;9.61;100.00;100351.28;5031021;28;20026;-78
2023/11/01 01:02:13;;;;;;;22.25;7.50;;;;;;;9.60;100.00;100344.31;5032018;28;20043;-78
2023/11/01 01:04:45;;;;;;;24.75;8.27;;;;;;;9.63;100.00;100348.47;5031392;28;20555;-78
2023/11/01 01:07:10;;;;;;;35.53;10.05;;;;;;;9.64;100.00;100344.84;5031765;28;20044;-79
2023/11/01 01:09:36;;;;;;;25.92;10.70;;;;;;;9.65;100.00;100341.22;5031269;28;20037;-79
2023/11/01 01:12:01;;;;;;;27.13;11.50;;;;;;;9.65;100.00;100330.59;5031053;28;20411;-80
2023/11/01 01:14:26;;;;;;;27.30;11.05;;;;;;;9.64;100.00;100327.09;5031184;28;20034;-79
2023/11/01 01:16:52;;;;;;;29.45;11.73;;;;;;;9.66;100.00;100322.47;5030929;28;20492;-78
2023/11/01 01:19:17;;;;;;;24.67;11.02;;;;;;;9.66;100.00;100317.16;5030068;28;20417;-79
2023/11/01 01:21:43;;;;;;;27.85;10.50;;;;;;;9.65;100.00;100314.66;5030879;28;20127;-79
2023/11/01 01:24:08;;;;;;;23.15;10.32;;;;;;;9.64;100.00;100308.50;5030608;28;20081;-80
2023/11/01 01:26:34;;;;;;;27.67;9.80;;;;;;;9.61;100.00;100302.63;5031074;28;20033;-78
2023/11/01 01:28:59;;;;;;;24.55;10.00;;;;;;;9.61;100.00;100310.59;5030398;28;20428;-79
2023/11/01 01:31:25;;;;;;;29.77;9.23;;;;;;;9.58;100.00;100306.41;5030940;28;20395;-78
2023/11/01 01:33:50;;;;;;;24.30;10.05;;;;;;;9.59;100.00;100305.44;5030743;28;20076;-79
2023/11/01 01:36:15;;;;;;;21.73;9.57;;;;;;;9.59;100.00;100304.59;5030092;28;20037;-78
2023/11/01 01:38:41;;;;;;;25.70;9.30;;;;;;;9.57;100.00;100311.88;5031240;28;20036;-77
2023/11/01 01:41:06;;;;;;;22.58;9.75;;;;;;;9.57;100.00;100294.13;5030791;28;20112;-80
2023/11/01 01:43:31;;;;;;;20.55;8.77;;;;;;;9.57;100.00;100290.63;5030759;28;20033;-78
2023/11/01 01:46:09;;;;;;;18.58;9.05;;;;;;;9.58;100.00;100287.00;5030948;28;20132;-78
2023/11/01 01:48:35;;;;;;;20.52;7.75;;;;;;;9.52;100.00;100288.41;5030997;28;20449;-79
2023/11/01 01:51:02;;;;;;;19.48;8.00;;;;;;;9.46;100.00;100278.38;5030655;28;20044;-79
2023/11/01 01:53:27;;;;;;;23.65;8.10;;;;;;;9.43;100.00;100279.50;5031130;28;20056;-79
2023/11/01 01:55:54;;;;;;;16.60;7.55;;;;;;;9.40;100.00;100266.50;5029046;28;20094;-79
2023/11/01 01:58:20;;;;;;;17.52;6.80;;;;;;;9.38;100.00;100265.81;5029608;28;20041;-79
2023/11/01 02:00:48;;;;;;;22.08;7.78;;;;;;;9.38;100.00;100260.50;5030986;28;20033;-79
2023/11/01 02:03:14;;;;;;;17.17;6.85;;;;;;;9.36;100.00;100257.19;5029446;28;20393;-79
2023/11/01 02:05:40;;;;;;;18.80;6.72;;;;;;;9.32;100.00;100251.31;5031017;28;20085;-79
2023/11/01 02:08:05;;;;;;;17.52;6.20;;;;;;;9.32;100.00;100250.47;5030611;28;20087;-80
2023/11/01 02:10:31;;;;;;;14.32;6.05;;;;;;;9.31;100.00;100249.63;5031043;28;20461;-79
2023/11/01 02:12:56;;;;;;;16.05;5.65;;;;;;;9.28;100.00;100244.59;5030401;28;20124;-80
2023/11/01 02:15:22;;;;;;;15.30;5.97;;;;;;;9.28;100.00;100243.78;5030679;28;20072;-79
2023/11/01 02:17:47;;;;;;;18.08;6.15;;;;;;;9.28;100.00;100241.94;5034626;28;20481;-79
2023/11/01 02:20:14;;;;;;;21.58;6.90;;;;;;;9.31;100.00;100243.50;5032982;28;20037;-79
2023/11/01 02:22:39;;;;;;;19.77;6.72;;;;;;;9.30;100.00;100232.03;5034451;28;20382;-79
2023/11/01 02:25:05;;;;;;;14.55;6.10;;;;;;;9.29;100.00;100230.34;5032653;28;20159;-78
2023/11/01 02:27:31;;;;;;;20.73;6.43;;;;;;;9.26;100.00;100230.66;5032862;28;20033;-80
2023/11/01 02:29:56;;;;;;;22.55;7.03;;;;;;;9.25;100.00;100226.31;5034266;28;20393;-79
2023/11/01 02:32:27;;;;;;;21.30;7.55;;;;;;;9.29;100.00;100224.22;5032690;28;20079;-80
2023/11/01 02:34:52;;;;;;;15.02;7.30;;;;;;;9.28;100.00;100219.88;5034415;28;20092;-79
2023/11/01 02:37:17;;;;;;;26.33;7.28;;;;;;;9.28;100.00;100218.06;5032899;28;20041;-79
2023/11/01 02:39:43;;;;;;;25.30;7.38;;;;;;;9.29;100.00;100218.91;5034048;28;20065;-79
2023/11/01 02:42:08;;;;;;;20.58;7.07;;;;;;;9.30;100.00;100209.94;5033643;28;20171;-79
2023/11/01 02:44:33;;;;;;;25.58;7.13;;;;;;;9.31;100.00;100209.81;5034182;28;20392;-80
2023/11/01 02:46:59;;;;;;;18.42;6.70;;;;;;;9.34;100.00;100206.03;5034188;28;20033;-80
2023/11/01 02:49:24;;;;;;;17.40;5.68;;;;;;;9.34;100.00;100192.75;5033857;28;20040;-80
2023/11/01 02:51:50;;;;;;;19.73;5.50;;;;;;;9.36;100.00;100196.13;5034108;28;20061;-79
2023/11/01 02:54:15;;;;;;;13.00;5.40;;;;;;;9.38;100.00;100193.31;5033567;28;20053;-79
2023/11/01 02:56:41;;;;;;;10.85;5.00;;;;;;;9.38;100.00;100191.47;5033695;28;20156;-79
2023/11/01 02:59:07;;;;;;;11.68;4.50;;;;;;;9.39;100.00;100184.34;5033640;28;20033;-79
2023/11/01 03:01:33;;;;;;;9.82;5.03;;;;;;;9.41;100.00;100196.50;5033748;28;20031;-79
2023/11/01 03:03:58;;;;;;;11.05;4.90;;;;;;;9.43;100.00;100188.38;5034145;28;20033;-79
2023/11/01 03:06:24;;;;;;;13.80;5.30;;;;;;;9.42;100.00;100184.03;5033079;28;20038;-79
2023/11/01 03:08:50;;;;;;;19.38;6.07;;;;;;;9.44;100.00;100188.22;5033612;28;20034;-78
2023/11/01 03:11:16;;;;;;;13.88;6.30;;;;;;;9.48;100.00;100183.44;5033073;28;20064;-78
2023/11/01 03:13:41;;;;;;;13.75;5.63;;;;;;;9.47;100.00;100181.78;5032275;28;20477;-79
2023/11/01 03:16:07;;;;;;;15.85;6.80;;;;;;;9.46;100.00;100174.81;5033086;28;20056;-79
2023/11/01 03:18:32;;;;;;;18.63;8.25;;;;;;;9.46;100.00;100177.47;5033964;28;20179;-79
2023/11/01 03:20:57;;;;;;;19.95;7.70;;;;;;;9.45;100.00;100175.78;5033575;28;20116;-78
2023/11/01 03:23:23;;;;;;;16.10;7.47;;;;;;;9.43;100.00;100167.97;5033151;28;20029;-79
2023/11/01 03:25:48;;;;;;;21.63;9.05;;;;;;;9.43;100.00;100167.97;5033375;28;20065;-77
2023/11/01 03:28:13;;;;;;;20.75;8.93;;;;;;;9.42;100.00;100168.13;5031906;28;20029;-79
2023/11/01 03:30:39;;;;;;;18.85;10.13;;;;;;;9.42;100.00;100154.84;5033386;28;20330;-78
2023/11/01 03:33:04;;;;;;;27.15;11.23;;;;;;;9.43;100.00;100159.16;5031935;28;20400;-78
2023/11/01 03:35:30;;;;;;;26.15;12.00;;;;;;;9.42;100.00;100160.16;5033115;28;20034;-79
2023/11/01 03:37:55;;;;;;;39.38;12.32;;;;;;;9.41;100.00;100153.19;5033645;28;20147;-80
2023/11/01 03:40:20;;;;;;;29.80;12.25;;;;;;;9.42;100.00;100147.72;5032754;28;20033;-78
2023/11/01 03:42:46;;;;;;;28.98;13.57;;;;;;;9.43;100.00;100149.38;5033817;28;20488;-78
2023/11/01 03:45:11;;;;;;;35.88;14.52;;;;;;;9.45;100.00;100141.25;5033303;28;20037;-79
2023/11/01 03:47:37;;;;;;;32.05;15.15;;;;;;;9.45;100.00;100147.44;5033417;28;20037;-80
2023/11/01 03:50:07;;;;;;;30.67;15.52;;;;;;;9.46;100.00;100135.81;5032215;28;20100;-79
2023/11/01 03:52:33;;;;;;;30.95;15.98;;;;;;;9.46;100.00;100137.63;5033144;28;20033;-79
2023/11/01 03:54:59;;;;;;;41.47;16.77;;;;;;;9.47;100.00;100136.66;5033583;28;20393;-78
2023/11/01 03:57:25;;;;;;;41.15;16.83;;;;;;;9.48;100.00;100136.50;5033124;28;20042;-78
2023/11/01 03:59:50;;;;;;;43.30;17.23;;;;;;;9.48;100.00;100128.53;5033431;28;20587;-78
2023/11/01 04:02:16;;;;;;;30.60;16.65;;;;;;;9.51;100.00;100127.41;5032678;28;20039;-78
2023/11/01 04:04:41;;;;;;;42.63;17.08;;;;;;;9.51;100.00;100128.25;5033108;28;20041;-79
2023/11/01 04:07:06;;;;;;;40.33;17.20;;;;;;;9.52;100.00;100134.38;5032868;28;20038;-79
2023/11/01 04:09:32;;;;;;;40.28;17.52;;;;;;;9.52;100.00;100132.56;5032210;28;20025;-78
2023/11/01 04:11:57;;;;;;;37.95;16.70;;;;;;;9.53;100.00;100120.13;5032359;28;20084;-79
2023/11/01 04:14:22;;;;;;;36.83;17.45;;;;;;;9.55;100.00;100119.97;5032014;28;20029;-79
2023/11/01 04:16:48;;;;;;;42.50;16.52;;;;;;;9.55;100.00;100122.63;5032513;28;20126;-78
2023/11/01 04:19:14;;;;;;;41.25;17.65;;;;;;;9.56;100.00;100125.13;5032245;28;20051;-80
2023/11/01 04:21:40;;;;;;;31.75;14.98;;;;;;;9.56;100.00;100117.16;5032289;28;20037;-79
2023/11/01 04:24:05;;;;;;;36.63;16.35;;;;;;;9.58;100.00;100119.66;5032106;28;20034;-79
2023/11/01 04:26:31;;;;;;;31.58;16.27;;;;;;;9.57;100.00;100110.03;5032006;28;20034;-79
2023/11/01 04:28:56;;;;;;;35.78;15.45;;;;;;;9.60;100.00;100115.03;5032342;28;20065;-79
2023/11/01 04:31:24;;;;;;;34.40;15.65;;;;;;;9.63;100.00;100109.41;5031914;28;20033;-80
2023/11/01 04:33:51;;;;;;;34.20;14.65;;;;;;;9.64;100.00;100111.94;5031960;28;20034;-78
2023/11/01 04:36:23;;;;;;;38.50;16.63;;;;;;;9.69;100.00;100108.84;5032462;28;20034;-79
2023/11/01 04:38:49;;;;;;;31.52;14.63;;;;;;;9.71;100.00;100106.84;5031806;28;20103;-79
2023/11/01 04:41:14;;;;;;;32.97;15.45;;;;;;;9.71;100.00;100105.03;5031956;28;20064;-78
2023/11/01 04:43:39;;;;;;;29.38;15.50;;;;;;;9.76;100.00;100111.72;5031470;28;20052;-78
2023/11/01 04:46:05;;;;;;;37.63;15.98;;;;;;;9.79;100.00;100106.94;5031807;28;20064;-79
2023/11/01 04:48:30;;;;;;;36.88;16.92;;;;;;;9.81;100.00;100101.47;5030064;28;20091;-79
2023/11/01 04:50:56;;;;;;;41.40;17.63;;;;;;;9.85;100.00;100101.03;5031657;28;20425;-77
2023/11/01 04:53:21;;;;;;;35.90;17.50;;;;;;;9.89;100.00;100097.03;5031205;28;20029;-79
2023/11/01 04:55:46;;;;;;;42.42;18.00;;;;;;;9.93;100.00;100091.44;5031601;28;20095;-79
2023/11/01 04:58:12;;;;;;;40.20;17.85;;;;;;;9.96;100.00;100091.97;5031905;28;20038;-78
2023/11/01 05:00:38;;;;;;;32.95;16.70;;;;;;;10.00;100.00;100088.03;5031359;28;20447;-77
2023/11/01 05:03:03;;;;;;;36.33;17.13;;;;;;;10.05;100.00;100085.72;5031541;28;20108;-77
2023/11/01 05:05:31;;;;;;;36.97;15.65;;;;;;;10.08;100.00;100076.63;5030932;28;20159;-76
2023/11/01 05:07:57;;;;;;;34.17;15.05;;;;;;;10.11;100.00;100081.63;5031147;28;20124;-77
2023/11/01 05:10:22;;;;;;;32.85;14.75;;;;;;;10.15;100.00;100082.13;5031246;28;20112;-77
2023/11/01 05:12:48;;;;;;;28.00;13.32;;;;;;;10.19;100.00;100076.34;5030063;28;20041;-76
2023/11/01 05:15:13;;;;;;;23.80;12.23;;;;;;;10.23;100.00;100077.72;5031339;28;20033;-77
2023/11/01 05:17:40;;;;;;;20.55;10.80;;;;;;;10.26;100.00;100073.94;5030914;28;20480;-77
2023/11/01 05:20:07;;;;;;;21.08;10.02;;;;;;;10.30;100.00;100069.97;5031354;28;20064;-78
2023/11/01 05:22:32;;;;;;;21.40;9.10;;;;;;;10.34;100.00;100073.16;5030930;28;20036;-78
2023/11/01 05:24:58;;;;;;;18.58;8.90;;;;;;;10.37;100.00;100070.19;5031450;28;20548;-77
2023/11/01 05:27:23;;;;;;;18.10;8.10;;;;;;;10.40;100.00;100068.06;5031005;28;20044;-78
2023/11/01 05:29:49;;;;;;;16.52;7.90;;;;;;;10.43;100.00;100068.75;5029601;28;20029;-78
2023/11/01 05:32:14;;;;;;;25.15;9.10;;;;;;;10.48;100.00;100069.09;5031237;28;20033;-77
2023/11/01 05:34:40;;;;;;;24.05;9.10;;;;;;;10.49;100.00;100065.44;5030642;28;20037;-77
2023/11/01 05:37:09;;;;;;;18.08;8.95;;;;;;;10.48;100.00;100061.97;5029581;28;20055;-77
2023/11/01 05:39:35;;;;;;;20.75;9.88;;;;;;;10.52;100.00;100062.47;5030553;28;20041;-77
2023/11/01 05:42:00;;;;;;;27.50;10.48;;;;;;;10.55;100.00;100072.78;5030830;28;20037;-77
2023/11/01 05:44:25;;;;;;;20.95;10.38;;;;;;;10.55;100.00;100056.84;5030571;28;20052;-77
2023/11/01 05:46:54;;;;;;;27.88;9.95;;;;;;;10.56;100.00;100053.19;5029405;28;20103;-78
2023/11/01 05:49:20;;;;;;;26.08;11.10;;;;;;;10.56;100.00;100055.84;5029314;28;20097;-76
2023/11/01 05:51:45;;;;;;;28.40;10.15;;;;;;;10.56;100.00;100056.69;5032152;28;20091;-76
2023/11/01 05:54:11;;;;;;;29.35;9.75;;;;;;;10.58;100.00;100052.06;5034728;28;20132;-76
2023/11/01 05:56:36;;;;;;;28.35;9.48;;;;;;;10.58;100.00;100057.38;5034028;28;20401;-76
2023/11/01 05:59:01;;;;;;;32.33;10.05;;;;;;;10.58;100.00;100046.72;5034464;28;20030;-76
2023/11/01 06:01:27;;;;;;;32.53;9.13;;;;;;;10.59;100.00;100053.69;5034243;28;20121;-77
2023/11/01 06:03:56;;;;;;;31.95;10.65;;;;;;;10.58;100.00;100051.19;5034385;28;20159;-77
2023/11/01 06:06:23;;;;;;;28.13;8.90;;;;;;;10.59;100.00;100051.03;5034468;28;20033;-77
2023/11/01 06:08:50;;;;;;;25.52;9.10;;;;;;;10.57;100.00;100047.72;5032590;28;20384;-76
2023/11/01 06:11:15;;;;;;;42.17;9.82;;;;;;;10.55;100.00;100052.38;5034510;28;20085;-77
2023/11/01 06:13:40;;;;;;;36.47;9.10;;;;;;;10.56;100.00;100045.22;5033969;28;20052;-76
2023/11/01 06:16:07;;;;;;;29.30;8.18;;;;;;;10.55;100.00;100051.53;5032808;28;20037;-78
2023/11/01 06:18:33;;;;;;;38.53;8.57;;;;;;;10.54;100.00;100055.19;5033643;28;20096;-77
2023/11/01 06:20:59;;;;;;;29.90;7.50;;;;;;;10.54;100.00;100048.03;5033902;28;20037;-77
2023/11/01 06:23:24;;;;;;;27.30;7.57;;;;;;;10.52;100.00;100046.50;5034247;28;20026;-77
2023/11/01 06:25:50;;;;;;;31.38;7.70;;;;;;;10.50;100.00;100045.84;5033734;28;20034;-77
2023/11/01 06:28:15;;;;;;;28.10;6.47;;;;;;;10.50;100.00;100045.84;5034330;28;20138;-76
2023/11/01 06:30:41;;;;;;;29.75;6.90;;;;;;;10.49;100.00;100041.50;5033517;28;20044;-75
2023/11/01 06:33:07;;;;;;;28.58;6.60;;;;;;;10.47;100.00;100036.34;5034054;28;20029;-79
2023/11/01 06:35:32;;;;;;;24.05;6.70;;;;;;;10.47;100.00;100041.66;5033733;28;20108;-78
2023/11/01 06:37:58;;;;;;;26.25;7.93;;;;;;;10.50;100.00;100040.53;5032967;28;20053;-77
2023/11/01 06:40:23;;;;;;;23.60;7.90;;;;;;;10.49;100.00;100045.00;5034302;28;20088;-76
2023/11/01 06:42:49;;;;;;;28.80;7.93;;;;;;;10.47;100.00;100039.00;5033556;28;20065;-76
2023/11/01 06:45:14;;;;;;;34.45;8.55;;;;;;;10.49;100.00;100036.19;5033862;28;20044;-77
2023/11/01 06:47:39;;;;;;;29.02;8.52;;;;;;;10.48;100.00;100035.38;5033625;28;20030;-77
2023/11/01 06:50:05;;;;;;;36.17;7.45;;;;;;;10.47;100.00;100040.84;5033780;28;20034;-76
2023/11/01 06:52:31;;;;;;;29.95;6.28;;;;;;;10.46;100.00;100033.84;5033919;28;20033;-76
2023/11/01 06:54:57;;;;;;;31.25;6.57;;;;;;;10.43;100.00;100042.97;5033688;28;20030;-76
2023/11/01 06:57:22;;;;;;;25.80;5.72;;;;;;;10.46;100.00;100040.00;5034073;28;20057;-77
2023/11/01 06:59:48;;;;;;;26.23;5.47;;;;;;;10.45;100.00;100035.69;5033925;28;20041;-78
2023/11/01 07:02:13;;;;;;;19.42;5.65;;;;;;;10.41;100.00;100029.00;5033553;28;20449;-77
2023/11/01 07:04:38;;;;;;;30.20;4.97;;;;;;;10.40;100.00;100035.31;5033310;28;20030;-77
2023/11/01 07:07:04;;;;;;;21.52;4.85;;;;;;;10.39;100.00;100037.16;5033637;28;20468;-76
2023/11/01 07:09:29;;;;;;;21.00;4.72;;;;;;;10.37;100.00;100032.97;5032375;28;20045;-77
2023/11/01 07:11:54;;;;;;;28.45;5.70;;;;;;;10.35;100.00;100032.31;5033231;28;20036;-75
2023/11/01 07:14:20;;;;;;;21.13;4.78;;;;;;;10.35;100.00;100033.13;5033357;28;20052;-76
2023/11/01 07:16:45;;;;;;;23.10;4.43;;;;;;;10.36;100.00;100034.81;5032993;28;20060;-77
2023/11/01 07:19:12;;;;;;;23.40;4.53;;;;;;;10.40;100.00;100030.84;5033327;28;20055;-77
2023/11/01 07:21:40;;;;;;;23.95;6.65;;;;;;;10.41;100.00;100037.81;4999260;28;20070;-81
2023/11/01 07:24:07;;;;;;;19.58;4.57;;;;;;;10.46;100.00;100033.84;4991388;28;20217;-77
2023/11/01 07:26:32;;;;;;;12.75;3.88;;;;;;;10.47;100.00;100032.88;4991397;28;20042;-78
2023/11/01 07:28:59;;;;;;;19.42;4.68;;;;;;;10.49;100.00;100034.34;4991112;28;20096;-78
2023/11/01 07:31:25;;;;;;;24.13;4.47;;;;;;;10.50;100.00;100028.06;4991049;28;20512;-78
2023/11/01 07:33:50;;;;;;;15.93;3.85;;;;;;;10.51;100.00;100024.41;4990527;28;20128;-78
2023/11/01 07:36:16;;;;;;;26.73;4.75;;;;;;;10.53;100.00;100027.75;4991102;28;20463;-77
2023/11/01 07:38:41;;;;;;;19.33;4.00;;;;;;;10.55;100.00;100024.91;4990915;28;20512;-78
2023/11/01 07:41:07;;;;;;;24.88;4.15;;;;;;;10.57;100.00;100022.97;4991123;28;20054;-80
2023/11/01 07:43:32;;;;;;;24.35;3.88;;;;;;;10.58;100.00;100019.28;4991097;28;20390;-77
2023/11/01 07:45:58;;;;;;;16.65;3.33;;;;;;;10.62;100.00;100020.63;4988900;28;20042;-76
2023/11/01 07:48:23;;;;;;;20.13;3.95;;;;;;;10.64;100.00;100012.50;4990815;28;20049;-80
2023/11/01 07:50:49;;;;;;;25.15;4.18;;;;;;;10.66;100.00;100006.03;4990419;28;20078;-78
2023/11/01 07:53:14;;;;;;;21.38;4.28;;;;;;;10.71;100.00;100013.53;4990969;28;20034;-78
2023/11/01 07:55:39;;;;;;;19.90;4.75;;;;;;;10.70;100.00;100007.38;4989998;28;20570;-76
2023/11/01 07:58:06;;;;;;;23.75;4.38;;;;;;;10.73;100.00;100003.53;4995657;28;20406;-78
2023/11/01 08:00:31;;;;;;;28.92;4.68;;;;;;;10.75;100.00;100006.91;5009889;28;20461;-77
2023/11/01 08:02:58;;;;;;;26.17;4.43;;;;;;;10.75;100.00;100007.72;5010546;28;20041;-77
2023/11/01 08:05:23;;;;;;;18.55;4.45;;;;;;;10.73;100.00;100007.06;5010193;28;20026;-78
2023/11/01 08:07:49;;;;;;;22.63;4.55;;;;;;;10.75;100.00;100005.06;5009767;28;20022;-79
2023/11/01 08:10:15;;;;;;;23.55;4.07;;;;;;;10.77;100.00;100012.88;5009233;28;20038;-85
2023/11/01 08:12:40;;;;;;;31.33;4.15;;;;;;;10.76;100.00;100003.22;5010304;28;20466;-81
2023/11/01 08:15:06;;;;;;;18.98;3.90;;;;;;;10.77;100.00;100002.25;5009183;28;20520;-80
2023/11/01 08:17:32;;;;;;;20.15;3.90;;;;;;;10.80;100.00;100007.25;5010090;28;20021;-80
2023/11/01 08:19:58;;;;;;;24.20;4.55;;;;;;;10.87;100.00;99986.97;5007945;28;20098;-80
2023/11/01 08:22:24;;;;;;;22.60;3.88;;;;;;;10.99;100.00;99991.97;5010004;28;20026;-78
2023/11/01 08:24:50;;;;;;;17.15;3.45;;;;;;;11.06;100.00;99993.84;5008183;28;20553;-79
2023/11/01 08:27:16;;;;;;;21.98;3.58;;;;;;;11.11;100.00;99998.69;5010239;28;20117;-80
2023/11/01 08:29:42;;;;;;;16.88;3.38;;;;;;;11.14;100.00;99994.84;4992367;28;20480;-81
2023/11/01 08:32:11;;;;;;;24.83;4.18;;;;;;;11.21;100.00;99982.53;5009092;28;20117;-80
2023/11/01 08:34:37;;;;;;;22.23;4.18;;;;;;;11.21;100.00;99985.22;5009375;28;20126;-83
2023/11/01 08:37:03;;;;;;;19.92;3.45;;;;;;;11.22;100.00;99969.06;5009630;28;20121;-81
2023/11/01 08:39:28;;;;;;;12.10;3.13;;;;;;;11.26;100.00;99977.56;5009700;28;20110;-79
2023/11/01 08:41:54;;;;;;;20.63;3.63;;;;;;;11.32;100.00;99978.75;5009434;28;20472;-81
2023/11/01 08:44:19;;;;;;;15.43;3.83;;;;;;;11.36;100.00;99974.75;5009084;28;20193;-80
2023/11/01 08:46:45;;;;;;;14.38;3.10;;;;;;;11.39;100.00;99980.59;5007784;28;20091;-79
2023/11/01 08:49:11;;;;;;;22.02;3.85;;;;;;;11.43;100.00;99962.44;5007558;28;20406;-78
2023/11/01 08:51:38;;;;;;;14.68;3.17;;;;;;;11.47;100.00;99966.44;5009451;28;20026;-78
2023/11/01 08:54:05;;;;;;;17.60;2.97;;;;;;;11.47;100.00;99961.09;5008648;28;20045;-77
2023/11/01 08:56:30;;;;;;;14.13;3.20;;;;;;;11.45;100.00;99974.59;5008615;28;20057;-83
2023/11/01 08:58:55;;;;;;;17.08;2.72;;;;;;;11.46;100.00;99960.28;5008637;28;20103;-78
2023/11/01 09:01:21;;;;;;;12.00;3.17;;;;;;;11.55;100.00;99965.59;5009003;28;20041;-79
2023/11/01 09:03:47;;;;;;;11.05;2.78;;;;;;;11.62;100.00;99974.59;5009056;28;20501;-81
2023/11/01 09:06:12;;;;;;;14.05;3.03;;;;;;;11.62;100.00;99961.28;5008749;28;20053;-79
2023/11/01 09:08:37;;;;;;;9.52;2.50;;;;;;;11.67;100.00;99968.75;5008469;28;20454;-78
2023/11/01 09:11:03;;;;;;;17.23;2.53;;;;;;;11.61;100.00;99971.13;5008652;28;20134;-80
2023/11/01 09:13:28;;;;;;;15.43;4.57;;;;;;;11.63;100.00;99966.44;5008714;28;20053;-88
2023/11/01 09:15:54;;;;;;;17.80;2.92;;;;;;;11.61;100.00;99960.44;5009092;28;20346;-86
2023/11/01 09:18:20;;;;;;;15.00;2.28;;;;;;;11.62;100.00;99950.63;5008646;28;20026;-79
2023/11/01 09:20:46;;;;;;;12.32;2.58;;;;;;;11.63;100.00;99952.28;5007563;28;20445;-80
2023/11/01 09:23:11;;;;;;;14.77;2.83;;;;;;;11.70;100.00;99952.44;5008649;28;20026;-80
2023/11/01 09:25:38;;;;;;;16.90;2.85;;;;;;;11.73;100.00;99950.25;5007859;28;20042;-82
2023/11/01 09:28:03;;;;;;;15.43;2.38;;;;;;;11.76;100.00;99944.63;5008727;28;20029;-82
2023/11/01 09:30:29;;;;;;;13.98;2.40;;;;;;;11.75;100.00;99940.28;5008798;28;20034;-86
2023/11/01 09:32:54;;;;;;;14.38;2.85;;;;;;;11.79;100.00;99941.63;5008606;28;20437;-79
2023/11/01 09:35:19;;;;;;;10.35;2.50;;;;;;;11.83;100.00;99942.91;5008527;28;20108;-81
2023/11/01 09:37:45;;;;;;;12.27;2.17;;;;;;;11.90;100.00;99943.09;5008569;28;20030;-79
2023/11/01 09:40:12;;;;;;;13.93;2.60;;;;;;;11.85;100.00;99939.25;5008454;28;20117;-80
2023/11/01 09:42:40;;;;;;;14.70;2.30;;;;;;;11.89;100.00;99941.41;5008724;28;20176;-79
2023/11/01 09:45:10;;;;;;;13.88;2.10;;;;;;;11.89;100.00;99929.94;5007723;28;20073;-82
2023/11/01 09:47:37;;;;;;;10.15;1.83;;;;;;;11.90;100.00;99932.44;5008352;28;20030;-80
2023/11/01 09:50:03;;;;;;;7.88;1.98;;;;;;;11.92;100.00;99932.25;5008125;28;20354;-79
2023/11/01 09:52:30;;;;;;;6.93;1.98;;;;;;;11.93;100.00;99933.97;5008560;28;20042;-78
2023/11/01 09:54:56;;;;;;;9.07;2.05;;;;;;;11.89;100.00;99928.09;5006898;28;20474;-82
2023/11/01 09:57:24;;;;;;;10.55;2.92;;;;;;;11.93;100.00;99928.63;5007897;28;20057;-80
2023/11/01 09:59:49;;;;;;;11.60;2.50;;;;;;;11.92;100.00;99929.59;5008141;28;20030;-79
2023/11/01 10:02:15;;;;;;;13.43;2.63;;;;;;;11.95;100.00;99924.78;5007766;28;20076;-80
2023/11/01 10:04:41;;;;;;;15.43;2.00;;;;;;;11.93;100.00;99929.44;5008443;28;20398;-76
2023/11/01 10:07:06;;;;;;;15.38;2.20;;;;;;;11.96;100.00;99931.78;5006735;28;20041;-78
2023/11/01 10:09:33;;;;;;;11.52;1.85;;;;;;;11.97;100.00;99925.44;5008178;28;20025;-79
2023/11/01 10:11:58;;;;;;;11.90;2.45;;;;;;;11.95;100.00;99918.63;5006753;28;20034;-82
2023/11/01 10:14:29;;;;;;;9.40;2.00;;;;;;;12.07;100.00;99919.91;5007826;28;20127;-81
2023/11/01 10:16:56;;;;;;;13.93;2.25;;;;;;;12.14;100.00;99914.75;5007914;28;20021;-81
2023/11/01 10:19:21;;;;;;;12.45;2.20;;;;;;;12.19;100.00;99911.56;5006475;28;20038;-78
2023/11/01 10:21:47;;;;;;;6.25;2.20;;;;;;;12.25;100.00;99922.34;5008112;28;20029;-82
2023/11/01 10:24:12;;;;;;;13.38;1.90;;;;;;;12.27;100.00;99906.16;5008020;28;20108;-79
2023/11/01 10:26:38;;;;;;;13.38;1.88;;;;;;;12.35;100.00;99904.31;5008361;28;20057;-82
2023/11/01 10:29:04;;;;;;;11.65;2.05;;;;;;;12.56;100.00;99894.88;5008415;28;20496;-82
2023/11/01 10:31:30;;;;;;;15.00;2.03;;;;;;;12.74;100.00;99894.59;5008583;28;20030;-81
2023/11/01 10:33:55;;;;;;;8.38;2.22;;;;;;;12.88;100.00;99887.66;5006372;28;20458;-82
2023/11/01 10:36:21;;;;;;;13.70;2.38;;;;;;;13.09;100.00;99888.88;5008154;28;20026;-80
2023/11/01 10:38:47;;;;;;;15.93;2.10;;;;;;;13.20;100.00;99875.91;5011812;28;20040;-81
2023/11/01 10:41:14;;;;;;;8.35;1.92;;;;;;;13.31;100.00;99873.84;5018887;28;20071;-77
2023/11/01 10:43:40;;;;;;;11.85;2.00;;;;;;;13.39;100.00;99871.94;5026988;28;20413;-84
2023/11/01 10:46:07;;;;;;;12.70;2.20;;;;;;;13.38;100.00;99872.13;5032541;28;20120;-81
2023/11/01 10:48:33;;;;;;;7.53;2.50;;;;;;;13.26;100.00;99861.03;5034095;28;20542;-79
2023/11/01 10:50:58;;;;;;;10.93;2.03;;;;;;;13.18;100.00;99859.25;5034334;28;20085;-82
2023/11/01 10:53:25;;;;;;;9.60;2.10;;;;;;;13.02;100.00;99832.69;5033793;28;20022;-81
2023/11/01 10:55:51;;;;;;;8.65;3.38;;;;;;;12.76;100.00;99846.38;5033717;28;20059;-76
2023/11/01 10:58:24;;;;;;;8.60;2.10;;;;;;;12.64;100.00;99841.44;5033674;28;20464;-78
2023/11/01 11:01:01;;;;;;;8.93;2.10;;;;;;;12.52;100.00;99835.72;5034139;28;20113;-83
2023/11/01 11:03:47;;;;;;;9.43;2.00;;;;;;;12.47;100.00;99834.56;5033517;28;20036;-81
2023/11/01 11:06:17;;;;;;;7.15;1.88;;;;;;;12.53;100.00;99832.00;5033654;28;20029;-84
2023/11/01 11:09:24;;;;;;;12.25;2.80;;;;;;;12.54;100.00;99824.84;5034052;28;20025;-84